createdAt,value
2019-05-18T00:01:01.652Z,7.10
2019-05-18T00:03:32.433Z,7.57
2019-05-18T00:06:02.675Z,6.77
2019-05-18T00:08:34.212Z,7.00
2019-05-18T00:11:04.417Z,7.17
2019-05-18T00:13:34.595Z,7.17
2019-05-18T00:16:04.763Z,7.27
2019-05-18T00:18:35.366Z,7.50
2019-05-18T00:21:05.539Z,7.50
2019-05-18T00:23:36.321Z,7.63
2019-05-18T00:26:06.467Z,7.50
2019-05-18T00:28:36.674Z,7.37
2019-05-18T00:31:06.942Z,7.77
2019-05-18T00:43:51.100Z,8.53
2019-05-18T00:46:21.715Z,7.93
2019-05-18T00:48:52.030Z,8.03
2019-05-18T00:51:23.610Z,7.70
2019-05-18T00:55:09.189Z,7.20
2019-05-18T01:01:58.655Z,7.40
2019-05-18T01:04:30.410Z,7.97
2019-05-18T01:07:00.686Z,8.43
2019-05-18T01:09:31.322Z,7.97
2019-05-18T01:12:01.839Z,7.40
2019-05-18T01:14:32.176Z,7.73
2019-05-18T01:17:02.348Z,7.27
2019-05-18T01:19:33.412Z,7.27
2019-05-18T01:22:03.654Z,6.57
2019-05-18T01:24:33.916Z,7.07
2019-05-18T01:27:04.042Z,7.17
2019-05-18T01:29:34.252Z,7.20
2019-05-18T01:32:04.908Z,7.37
2019-05-18T01:34:35.100Z,6.93
2019-05-18T01:37:05.237Z,7.30
2019-05-18T01:39:36.798Z,7.13
2019-05-18T01:42:07.501Z,7.47
2019-05-18T01:44:37.640Z,7.47
2019-05-18T01:47:07.981Z,7.13
2019-05-18T01:49:38.151Z,7.13
2019-05-18T01:52:09.857Z,6.83
2019-05-18T01:54:41.202Z,7.27
2019-05-18T02:05:01.518Z,6.97
2019-05-18T02:07:36.660Z,7.47
2019-05-18T02:10:08.151Z,7.00
2019-05-18T02:12:38.755Z,6.70
2019-05-18T02:15:10.029Z,6.63
2019-05-18T02:17:40.171Z,6.80
2019-05-18T02:20:10.533Z,7.07
2019-05-18T02:22:40.794Z,7.10
2019-05-18T02:25:11.819Z,6.70
2019-05-18T02:27:41.964Z,7.20
2019-05-18T02:30:17.244Z,6.70
2019-05-18T02:32:45.573Z,7.03
2019-05-18T02:35:16.154Z,7.00
2019-05-18T02:37:46.333Z,6.63
2019-05-18T02:40:16.947Z,7.13
2019-05-18T02:42:47.087Z,6.97
2019-05-18T02:45:18.641Z,7.40
2019-05-18T02:47:48.837Z,7.40
2019-05-18T02:50:18.975Z,7.30
2019-05-18T02:52:50.042Z,7.30
2019-05-18T02:55:20.645Z,7.40
2019-05-18T02:57:50.896Z,7.37
2019-05-18T03:00:21.297Z,7.50
2019-05-18T03:02:51.474Z,6.77
2019-05-18T03:05:21.647Z,7.67
2019-05-18T03:08:51.276Z,7.53
2019-05-18T03:12:46.732Z,7.10
2019-05-18T03:16:15.271Z,7.53
2019-05-18T03:19:19.573Z,7.83
2019-05-18T03:22:21.041Z,7.53
2019-05-18T03:25:56.999Z,7.83
2019-05-18T03:36:55.751Z,7.50
2019-05-18T03:43:49.446Z,7.40
2019-05-18T03:51:46.106Z,7.57
2019-05-18T03:54:18.122Z,8.03
2019-05-18T03:56:49.263Z,7.43
2019-05-18T03:59:19.418Z,7.77
2019-05-18T04:02:13.893Z,7.03
2019-05-18T04:12:00.367Z,7.50
2019-05-18T04:14:31.403Z,7.60
2019-05-18T04:17:01.968Z,7.93
2019-05-18T04:19:45.415Z,7.53
2019-05-18T04:30:42.887Z,7.60
2019-05-18T04:33:14.729Z,7.83
2019-05-18T04:35:44.870Z,8.00
2019-05-18T04:38:15.043Z,7.90
2019-05-18T04:40:45.294Z,8.20
2019-05-18T04:43:15.884Z,8.17
2019-05-18T04:45:46.057Z,8.37
2019-05-18T04:48:16.200Z,7.40
2019-05-18T04:50:46.368Z,8.20
2019-05-18T04:53:16.638Z,7.90
2019-05-18T04:55:48.040Z,8.07
2019-05-18T04:58:18.314Z,7.60
2019-05-18T05:00:48.445Z,7.90
2019-05-18T05:03:18.625Z,8.47
2019-05-18T05:05:49.401Z,7.77
2019-05-18T05:08:19.982Z,8.27
2019-05-18T05:10:50.249Z,8.17
2019-05-18T05:13:20.486Z,7.80
2019-05-18T05:15:50.648Z,8.10
2019-05-18T05:18:20.898Z,8.03
2019-05-18T05:20:51.568Z,8.50
2019-05-18T05:23:21.731Z,8.17
2019-05-18T05:25:52.404Z,8.37
2019-05-18T05:28:22.557Z,8.53
2019-05-18T05:30:52.684Z,8.33
2019-05-18T05:33:22.924Z,8.53
2019-05-18T05:35:53.590Z,8.77
2019-05-18T05:38:23.726Z,8.57
2019-05-18T05:40:55.190Z,8.90
2019-05-18T05:43:25.362Z,8.40
2019-05-18T05:45:55.509Z,8.93
2019-05-18T05:48:25.767Z,8.43
2019-05-18T05:50:56.472Z,8.80
2019-05-18T05:53:26.844Z,8.50
2019-05-18T05:55:58.301Z,9.30
2019-05-18T05:58:29.955Z,8.97
2019-05-18T06:01:00.653Z,9.13
2019-05-18T06:03:30.920Z,9.37
2019-05-18T06:06:39.560Z,8.40
2019-05-18T06:16:25.449Z,8.50
2019-05-18T06:18:55.653Z,9.33
2019-05-18T06:21:25.847Z,9.00
2019-05-18T06:23:56.382Z,9.50
2019-05-18T06:33:48.875Z,8.33
2019-05-18T06:36:20.385Z,8.73
2019-05-18T06:38:50.596Z,8.63
2019-05-18T06:41:20.759Z,8.87
2019-05-18T06:43:51.030Z,9.20
2019-05-18T06:47:01.320Z,8.80
2019-05-18T06:50:18.576Z,8.53
2019-05-18T06:53:13.989Z,8.40
2019-05-18T06:56:18.089Z,9.33
2019-05-18T06:58:54.621Z,9.10
2019-05-18T07:01:24.816Z,8.53
2019-05-18T07:03:55.121Z,8.93
2019-05-18T07:06:25.431Z,8.63
2019-05-18T07:08:57.074Z,8.43
2019-05-18T07:11:28.022Z,8.90
2019-05-18T07:13:58.185Z,8.90
2019-05-18T07:16:28.337Z,8.70
2019-05-18T07:18:58.482Z,8.37
2019-05-18T07:21:28.773Z,8.13
2019-05-18T07:23:59.419Z,8.60
2019-05-18T07:26:29.567Z,8.27
2019-05-18T07:29:05.538Z,8.37
2019-05-18T07:31:33.799Z,8.00
2019-05-18T07:34:04.004Z,7.70
2019-05-18T07:36:34.170Z,7.87
2019-05-18T07:39:06.057Z,8.30
2019-05-18T07:41:46.351Z,7.33
2019-05-18T07:44:08.553Z,7.57
2019-05-18T07:46:39.173Z,8.03
2019-05-18T07:49:09.303Z,8.00
2019-05-18T07:51:39.510Z,7.40
2019-05-18T07:54:10.218Z,7.57
2019-05-18T07:56:40.449Z,7.60
2019-05-18T07:59:12.333Z,7.77
2019-05-18T08:01:43.753Z,7.70
2019-05-18T08:04:14.366Z,7.30
2019-05-18T08:06:46.673Z,7.50
2019-05-18T08:09:16.827Z,7.40
2019-05-18T08:11:47.135Z,7.10
2019-05-18T08:14:17.763Z,7.50
2019-05-18T08:16:48.396Z,7.57
2019-05-18T08:19:18.960Z,8.17
2019-05-18T08:22:39.020Z,7.27
2019-05-18T08:25:57.677Z,7.80
2019-05-18T08:28:56.358Z,7.30
2019-05-18T08:31:27.495Z,7.70
2019-05-18T08:33:57.780Z,8.20
2019-05-18T08:36:27.966Z,7.93
2019-05-18T08:38:58.665Z,7.97
2019-05-18T08:45:35.277Z,7.80
2019-05-18T08:51:10.516Z,7.87
2019-05-18T08:53:42.006Z,7.70
2019-05-18T08:56:12.196Z,7.67
2019-05-18T08:58:42.389Z,8.27
2019-05-18T09:01:15.734Z,8.47
2019-05-18T09:03:46.461Z,7.90
2019-05-18T09:06:16.618Z,8.57
2019-05-18T09:08:48.215Z,8.23
2019-05-18T09:11:20.198Z,7.57
2019-05-18T09:13:50.425Z,8.40
2019-05-18T09:16:20.581Z,7.97
2019-05-18T09:18:50.778Z,8.00
2019-05-18T09:21:20.936Z,8.47
2019-05-18T09:23:53.172Z,7.50
2019-05-18T09:26:23.349Z,7.63
2019-05-18T09:28:53.542Z,7.83
2019-05-18T09:31:23.807Z,7.90
2019-05-18T09:38:00.516Z,7.43
2019-05-18T09:44:20.496Z,7.67
2019-05-18T09:46:51.078Z,8.00
2019-05-18T09:49:21.273Z,8.20
2019-05-18T09:51:51.419Z,8.23
2019-05-18T09:55:06.692Z,7.73
2019-05-18T10:01:52.020Z,8.17
2019-05-18T10:04:23.939Z,8.73
2019-05-18T10:06:54.208Z,8.13
2019-05-18T10:09:24.879Z,8.33
2019-05-18T10:11:55.076Z,8.20
2019-05-18T10:14:25.231Z,8.00
2019-05-18T10:16:55.396Z,8.27
2019-05-18T10:19:25.704Z,9.00
2019-05-18T10:21:56.466Z,9.07
2019-05-18T10:24:27.168Z,9.03
2019-05-18T10:26:57.365Z,8.47
2019-05-18T10:29:27.565Z,9.30
2019-05-18T10:31:58.228Z,8.37
2019-05-18T10:34:28.378Z,7.20
2019-05-18T10:36:58.542Z,6.90
2019-05-18T10:39:29.917Z,6.40
2019-05-18T10:42:00.479Z,7.10
2019-05-18T10:44:31.566Z,7.50
2019-05-18T10:47:02.756Z,6.10
2019-05-18T10:49:32.939Z,7.30
2019-05-18T10:52:03.232Z,7.00
2019-05-18T10:54:36.079Z,6.90
2019-05-18T10:57:06.226Z,6.30
2019-05-18T10:59:36.415Z,6.50
2019-05-18T11:02:06.575Z,6.37
2019-05-18T11:04:40.506Z,5.85
2019-05-18T11:07:10.709Z,4.57
2019-05-18T11:09:41.056Z,4.87
2019-05-18T11:12:12.312Z,5.33
2019-05-18T11:14:43.016Z,5.40
2019-05-18T11:17:13.193Z,5.28
2019-05-18T11:19:44.730Z,5.08
2019-05-18T11:22:14.901Z,4.40
2019-05-18T11:24:45.461Z,3.47
2019-05-18T11:27:15.605Z,3.90
2019-05-18T11:29:46.241Z,3.80
2019-05-18T11:32:16.385Z,3.60
2019-05-18T11:34:46.546Z,3.42
2019-05-18T11:37:16.798Z,4.30
2019-05-18T11:39:47.436Z,4.95
2019-05-18T11:42:17.563Z,4.58
2019-05-18T11:44:48.315Z,4.28
2019-05-18T11:47:18.479Z,5.70
2019-05-18T11:49:49.227Z,5.25
2019-05-18T11:52:19.427Z,4.92
2019-05-18T11:54:49.661Z,5.00
2019-05-18T11:57:20.680Z,5.05
2019-05-18T11:59:52.991Z,4.90
2019-05-18T12:02:24.675Z,4.65
2019-05-18T12:04:55.849Z,4.15
2019-05-18T12:07:26.115Z,4.40
2019-05-18T12:10:03.069Z,4.60
2019-05-18T12:16:32.973Z,4.35
2019-05-18T12:19:03.938Z,4.20
2019-05-18T12:21:37.882Z,3.70
2019-05-18T12:24:15.289Z,3.40
2019-05-18T12:26:55.537Z,3.92
2019-05-18T12:29:30.187Z,2.83
2019-05-18T12:32:00.446Z,2.80
2019-05-18T12:34:31.148Z,2.62
2019-05-18T12:37:02.336Z,3.05
2019-05-18T12:39:32.489Z,2.92
2019-05-18T12:42:02.652Z,3.50
2019-05-18T12:44:32.874Z,3.72
2019-05-18T12:47:03.631Z,3.17
2019-05-18T12:49:33.731Z,3.90
2019-05-18T12:59:43.992Z,3.02
2019-05-18T13:02:59.617Z,2.00
2019-05-18T13:05:59.933Z,2.70
2019-05-18T13:12:11.736Z,3.40
2019-05-18T13:22:08.468Z,3.65
2019-05-18T13:25:12.028Z,3.30
2019-05-18T13:28:15.841Z,3.52
2019-05-18T13:31:30.386Z,3.42
2019-05-18T13:34:00.545Z,3.20
2019-05-18T13:36:30.735Z,4.37
2019-05-18T13:39:00.890Z,3.70
2019-05-18T13:41:32.514Z,3.22
2019-05-18T13:44:52.965Z,3.20
2019-05-18T13:48:03.234Z,3.50
2019-05-18T13:53:55.105Z,3.25
2019-05-18T13:56:25.713Z,2.92
2019-05-18T13:58:55.882Z,2.75
2019-05-18T14:01:26.003Z,2.62
2019-05-18T14:03:56.161Z,2.50
2019-05-18T14:06:27.172Z,2.52
2019-05-18T14:08:57.750Z,2.83
2019-05-18T14:11:27.915Z,2.40
2019-05-18T14:14:52.964Z,2.72
2019-05-18T14:17:50.359Z,2.37
2019-05-18T14:20:53.092Z,2.62
2019-05-18T14:23:30.539Z,2.50
2019-05-18T14:26:00.697Z,2.20
2019-05-18T14:28:30.863Z,2.40
2019-05-18T14:31:01.499Z,2.20
2019-05-18T14:33:31.652Z,2.17
2019-05-18T14:36:01.827Z,2.20
2019-05-18T14:38:31.984Z,2.25
2019-05-18T14:41:02.711Z,2.12
2019-05-18T14:43:35.820Z,2.20
2019-05-18T14:46:07.126Z,2.12
2019-05-18T14:48:37.364Z,5.33
2019-05-18T14:51:07.999Z,15.23
2019-05-18T14:53:39.251Z,5.83
2019-05-18T14:56:09.461Z,1.98
2019-05-18T14:58:39.614Z,1.80
2019-05-18T15:01:11.069Z,3.17
2019-05-18T15:03:41.771Z,4.50
2019-05-18T15:06:12.128Z,2.00
2019-05-18T15:08:43.529Z,1.90
2019-05-18T15:11:13.719Z,5.72
2019-05-18T15:13:44.453Z,2.92
2019-05-18T15:16:14.581Z,1.82
2019-05-18T15:18:44.823Z,2.10
2019-05-18T15:21:14.999Z,1.80
2019-05-18T15:23:45.687Z,1.85
2019-05-18T15:29:57.481Z,2.02
2019-05-18T15:33:04.419Z,1.80
2019-05-18T15:36:15.469Z,2.52
2019-05-18T15:38:45.672Z,2.60
2019-05-18T15:41:16.352Z,2.37
2019-05-18T15:43:46.624Z,2.50
2019-05-18T15:46:16.775Z,2.35
2019-05-18T15:48:47.631Z,2.60
2019-05-18T15:51:18.280Z,2.47
2019-05-18T15:53:48.511Z,2.50
2019-05-18T15:56:18.717Z,2.27
2019-05-18T15:58:48.893Z,2.20
2019-05-18T16:01:19.482Z,2.12
2019-05-18T16:03:50.474Z,2.70
2019-05-18T16:06:23.323Z,2.90
2019-05-18T16:08:54.260Z,2.87
2019-05-18T16:11:24.434Z,3.08
2019-05-18T16:13:54.970Z,3.00
2019-05-18T16:16:25.353Z,3.17
2019-05-18T16:18:55.515Z,3.22
2019-05-18T16:21:25.663Z,3.10
2019-05-18T16:23:56.313Z,2.90
2019-05-18T16:26:27.033Z,2.95
2019-05-18T16:28:57.210Z,2.90
2019-05-18T16:31:27.365Z,3.10
2019-05-18T16:33:57.525Z,3.08
2019-05-18T16:36:27.782Z,3.12
2019-05-18T16:39:48.770Z,2.75
2019-05-18T16:46:50.304Z,2.67
2019-05-18T16:53:50.812Z,2.70
2019-05-18T16:56:34.895Z,2.90
2019-05-18T16:59:06.596Z,2.70
2019-05-18T17:01:38.668Z,2.87
2019-05-18T17:04:08.945Z,3.05
2019-05-18T17:06:39.268Z,3.17
2019-05-18T17:09:10.451Z,3.02
2019-05-18T17:11:41.344Z,3.10
2019-05-18T17:14:11.507Z,3.10
2019-05-18T17:16:43.028Z,3.10
2019-05-18T17:19:13.172Z,2.70
2019-05-18T17:21:43.889Z,3.10
2019-05-18T17:24:14.024Z,3.00
2019-05-18T17:26:52.926Z,2.75
2019-05-18T17:29:17.583Z,2.90
2019-05-18T17:31:49.516Z,3.08
2019-05-18T17:34:19.677Z,3.40
2019-05-18T17:36:52.526Z,3.60
2019-05-18T17:39:21.853Z,4.15
2019-05-18T17:41:52.512Z,4.10
2019-05-18T17:44:22.658Z,4.12
2019-05-18T17:46:54.051Z,3.50
2019-05-18T17:49:26.961Z,3.80
2019-05-18T17:53:10.061Z,3.37
2019-05-18T17:56:15.460Z,3.80
2019-05-18T18:02:23.955Z,4.07
2019-05-18T18:04:54.703Z,3.80
2019-05-18T18:07:24.845Z,4.17
2019-05-18T18:09:55.650Z,4.27
2019-05-18T18:12:44.323Z,4.27
2019-05-18T18:22:58.037Z,4.37
2019-05-18T18:25:28.262Z,5.07
2019-05-18T18:27:58.388Z,4.93
2019-05-18T18:30:28.606Z,4.10
2019-05-18T18:32:59.315Z,4.73
2019-05-18T18:35:30.584Z,4.40
2019-05-18T18:38:00.780Z,4.00
2019-05-18T18:40:31.129Z,4.00
2019-05-18T18:43:01.852Z,4.43
2019-05-18T18:46:42.213Z,4.00
2019-05-18T18:50:01.732Z,4.30
2019-05-18T18:56:20.374Z,3.77
2019-05-18T18:58:50.571Z,4.23
2019-05-18T19:01:20.743Z,4.10
2019-05-18T19:03:50.959Z,4.03
2019-05-18T19:06:21.638Z,4.17
2019-05-18T19:08:53.003Z,4.17
2019-05-18T19:11:24.481Z,4.70
2019-05-18T19:13:54.727Z,4.40
2019-05-18T19:16:25.326Z,4.50
2019-05-18T19:18:55.482Z,4.50
2019-05-18T19:21:25.731Z,4.10
2019-05-18T19:23:55.902Z,4.50
2019-05-18T19:26:26.072Z,4.30
2019-05-18T19:28:57.723Z,4.67
2019-05-18T19:31:27.881Z,4.73
2019-05-18T19:33:58.050Z,4.50
2019-05-18T19:36:29.202Z,5.07
2019-05-18T19:38:59.924Z,4.67
2019-05-18T19:41:30.123Z,4.90
2019-05-18T19:44:00.306Z,5.30
2019-05-18T19:46:30.475Z,5.10
2019-05-18T19:49:00.656Z,5.67
2019-05-18T19:51:31.353Z,5.13
2019-05-18T19:54:01.597Z,5.30
2019-05-18T19:56:39.260Z,5.07
2019-05-18T19:59:03.596Z,5.40
2019-05-18T20:01:34.279Z,5.17
2019-05-18T20:04:05.749Z,5.30
2019-05-18T20:06:35.929Z,5.53
2019-05-18T20:09:06.901Z,5.43
2019-05-18T20:11:38.753Z,5.17
2019-05-18T20:14:08.933Z,5.17
2019-05-18T20:16:40.194Z,4.53
2019-05-18T20:19:10.876Z,4.67
2019-05-18T20:21:41.493Z,4.50
2019-05-18T20:24:11.634Z,4.63
2019-05-18T20:26:41.866Z,4.20
2019-05-18T20:29:41.362Z,4.53
2019-05-18T20:32:33.582Z,4.20
2019-05-18T20:38:45.690Z,4.70
2019-05-18T20:41:15.840Z,4.00
2019-05-18T20:43:46.545Z,4.67
2019-05-18T20:46:17.109Z,4.47
2019-05-18T20:48:47.447Z,4.50
2019-05-18T20:51:17.590Z,4.40
2019-05-18T20:53:49.208Z,4.10
2019-05-18T20:56:19.797Z,4.30
2019-05-18T20:58:50.041Z,4.30
2019-05-18T21:01:21.162Z,4.80
2019-05-18T21:03:51.433Z,4.63
2019-05-18T21:06:22.502Z,4.33
2019-05-18T21:08:52.625Z,4.40
2019-05-18T21:11:24.107Z,4.13
2019-05-18T21:13:57.864Z,3.60
2019-05-18T21:16:28.549Z,3.90
2019-05-18T21:18:58.690Z,4.10
2019-05-18T21:21:28.883Z,4.77
2019-05-18T21:23:59.986Z,4.53
2019-05-18T21:26:31.072Z,4.50
2019-05-18T21:29:01.247Z,4.73
2019-05-18T21:31:32.392Z,4.90
2019-05-18T21:34:02.547Z,4.60
2019-05-18T21:36:33.375Z,4.60
2019-05-18T21:39:03.738Z,5.20
2019-05-18T21:41:34.643Z,4.93
2019-05-18T21:44:05.083Z,5.07
2019-05-18T21:46:38.945Z,5.03
2019-05-18T21:49:07.561Z,5.27
2019-05-18T21:51:37.735Z,5.27
2019-05-18T21:54:07.875Z,5.47
2019-05-18T21:56:38.456Z,5.70
2019-05-18T21:59:12.269Z,6.10
2019-05-18T22:01:41.849Z,6.30
2019-05-18T22:04:12.053Z,6.47
2019-05-18T22:06:42.665Z,6.60
2019-05-18T22:09:12.840Z,6.53
2019-05-18T22:11:43.075Z,6.30
2019-05-18T22:14:14.898Z,7.27
2019-05-18T22:16:45.508Z,6.40
2019-05-18T22:19:16.159Z,6.90
2019-05-18T22:21:46.335Z,6.80
2019-05-18T22:24:16.496Z,6.67
2019-05-18T22:26:46.646Z,7.13
2019-05-18T22:29:16.911Z,7.43
2019-05-18T22:31:48.629Z,7.03
2019-05-18T22:34:18.806Z,7.30
2019-05-18T22:36:48.956Z,6.70
2019-05-18T22:39:19.101Z,7.10
2019-05-18T22:41:49.292Z,7.00
2019-05-18T22:44:19.935Z,7.30
2019-05-18T22:46:50.214Z,7.43
2019-05-18T22:49:20.390Z,7.00
2019-05-18T22:51:50.596Z,6.67
2019-05-18T22:57:57.446Z,7.90
2019-05-18T23:00:41.778Z,7.77
2019-05-18T23:03:23.873Z,8.60
2019-05-18T23:05:54.038Z,8.27
2019-05-18T23:08:24.606Z,8.57
2019-05-18T23:10:54.810Z,8.40
2019-05-18T23:13:26.867Z,9.13
2019-05-18T23:15:57.868Z,9.00
2019-05-18T23:18:29.092Z,8.80
2019-05-18T23:20:59.654Z,8.37
2019-05-18T23:23:29.818Z,7.80
2019-05-18T23:26:21.123Z,8.33
2019-05-18T23:29:40.881Z,8.00
2019-05-18T23:35:39.097Z,9.60
2019-05-18T23:38:09.275Z,9.97
2019-05-18T23:40:39.401Z,9.37
2019-05-18T23:43:09.559Z,10.03
2019-05-18T23:45:40.179Z,10.73
2019-05-18T23:48:11.906Z,10.17
2019-05-18T23:50:42.037Z,10.43
2019-05-18T23:53:12.189Z,10.73
2019-05-18T23:55:42.416Z,10.67
2019-05-18T23:58:13.032Z,10.73
